sensor_id;sensor_type;location;lat;lon;timestamp;temperature;humidity
23156;DHT22;11746;50.876;4.246;2024-03-08T00:00:59;6.70;99.90
23156;DHT22;11746;50.876;4.246;2024-03-08T00:03:27;6.60;99.90
23156;DHT22;11746;50.876;4.246;2024-03-08T00:05:55;6.50;99.90
23156;DHT22;11746;50.876;4.246;2024-03-08T00:08:21;6.50;99.90
23156;DHT22;11746;50.876;4.246;2024-03-08T00:10:47;6.60;99.90
23156;DHT22;11746;50.876;4.246;2024-03-08T00:13:12;6.70;99.90
23156;DHT22;11746;50.876;4.246;2024-03-08T00:15:38;6.60;99.90
23156;DHT22;11746;50.876;4.246;2024-03-08T00:18:04;6.40;99.90
23156;DHT22;11746;50.876;4.246;2024-03-08T00:20:29;6.50;99.90
23156;DHT22;11746;50.876;4.246;2024-03-08T00:22:55;6.60;99.90
23156;DHT22;11746;50.876;4.246;2024-03-08T00:25:25;6.50;99.90
23156;DHT22;11746;50.876;4.246;2024-03-08T00:27:51;6.50;99.90
23156;DHT22;11746;50.876;4.246;2024-03-08T00:30:21;6.30;99.90
23156;DHT22;11746;50.876;4.246;2024-03-08T00:32:48;6.20;99.90
23156;DHT22;11746;50.876;4.246;2024-03-08T00:35:14;6.20;99.90
23156;DHT22;11746;50.876;4.246;2024-03-08T00:37:40;6.20;99.90
23156;DHT22;11746;50.876;4.246;2024-03-08T00:40:08;6.10;99.90
23156;DHT22;11746;50.876;4.246;2024-03-08T00:42:36;6.20;99.90
23156;DHT22;11746;50.876;4.246;2024-03-08T00:45:04;6.10;99.90
23156;DHT22;11746;50.876;4.246;2024-03-08T00:47:29;6.00;99.90
23156;DHT22;11746;50.876;4.246;2024-03-08T00:49:57;6.00;99.90
23156;DHT22;11746;50.876;4.246;2024-03-08T00:52:23;6.00;99.90
23156;DHT22;11746;50.876;4.246;2024-03-08T00:54:49;6.00;99.90
23156;DHT22;11746;50.876;4.246;2024-03-08T00:57:18;6.00;99.90
23156;DHT22;11746;50.876;4.246;2024-03-08T00:59:44;5.90;99.90
23156;DHT22;11746;50.876;4.246;2024-03-08T01:02:10;6.00;99.90
23156;DHT22;11746;50.876;4.246;2024-03-08T01:04:37;6.00;99.90
23156;DHT22;11746;50.876;4.246;2024-03-08T01:07:05;5.90;99.90
23156;DHT22;11746;50.876;4.246;2024-03-08T01:09:31;5.80;99.90
23156;DHT22;11746;50.876;4.246;2024-03-08T01:11:59;5.80;99.90
23156;DHT22;11746;50.876;4.246;2024-03-08T01:14:27;5.90;99.90
23156;DHT22;11746;50.876;4.246;2024-03-08T01:16:56;5.90;99.90
23156;DHT22;11746;50.876;4.246;2024-03-08T01:19:24;5.80;99.90
23156;DHT22;11746;50.876;4.246;2024-03-08T01:21:50;5.80;99.90
23156;DHT22;11746;50.876;4.246;2024-03-08T01:24:16;5.80;99.90
23156;DHT22;11746;50.876;4.246;2024-03-08T01:26:42;5.80;99.90
23156;DHT22;11746;50.876;4.246;2024-03-08T01:29:08;5.70;99.90
23156;DHT22;11746;50.876;4.246;2024-03-08T01:31:33;5.70;99.90
23156;DHT22;11746;50.876;4.246;2024-03-08T01:33:59;5.70;99.90
23156;DHT22;11746;50.876;4.246;2024-03-08T01:36:27;5.80;99.90
23156;DHT22;11746;50.876;4.246;2024-03-08T01:38:53;5.60;99.90
23156;DHT22;11746;50.876;4.246;2024-03-08T01:41:21;5.60;99.90
23156;DHT22;11746;50.876;4.246;2024-03-08T01:43:47;5.50;99.90
23156;DHT22;11746;50.876;4.246;2024-03-08T01:46:19;5.50;99.90
23156;DHT22;11746;50.876;4.246;2024-03-08T01:48:45;5.50;99.90
23156;DHT22;11746;50.876;4.246;2024-03-08T01:51:11;5.50;99.90
23156;DHT22;11746;50.876;4.246;2024-03-08T01:53:40;5.40;99.90
23156;DHT22;11746;50.876;4.246;2024-03-08T01:56:10;5.50;99.90
23156;DHT22;11746;50.876;4.246;2024-03-08T01:58:38;5.50;99.90
23156;DHT22;11746;50.876;4.246;2024-03-08T02:01:04;5.50;99.90
23156;DHT22;11746;50.876;4.246;2024-03-08T02:03:34;5.40;99.90
23156;DHT22;11746;50.876;4.246;2024-03-08T02:06:03;5.50;99.90
23156;DHT22;11746;50.876;4.246;2024-03-08T02:08:30;5.50;99.90
23156;DHT22;11746;50.876;4.246;2024-03-08T02:10:57;5.50;99.90
23156;DHT22;11746;50.876;4.246;2024-03-08T02:13:27;5.50;99.90
23156;DHT22;11746;50.876;4.246;2024-03-08T02:15:58;5.40;99.90
23156;DHT22;11746;50.876;4.246;2024-03-08T02:18:28;5.30;99.90
23156;DHT22;11746;50.876;4.246;2024-03-08T02:21:12;5.30;99.90
23156;DHT22;11746;50.876;4.246;2024-03-08T02:23:39;5.40;99.90
23156;DHT22;11746;50.876;4.246;2024-03-08T02:26:05;5.40;99.90
23156;DHT22;11746;50.876;4.246;2024-03-08T02:28:33;5.40;99.90
23156;DHT22;11746;50.876;4.246;2024-03-08T02:31:01;5.30;99.90
23156;DHT22;11746;50.876;4.246;2024-03-08T02:33:30;5.30;99.90
23156;DHT22;11746;50.876;4.246;2024-03-08T02:35:55;5.30;99.90
23156;DHT22;11746;50.876;4.246;2024-03-08T02:38:22;5.20;99.90
23156;DHT22;11746;50.876;4.246;2024-03-08T02:40:53;5.20;99.90
23156;DHT22;11746;50.876;4.246;2024-03-08T02:43:22;5.10;99.90
23156;DHT22;11746;50.876;4.246;2024-03-08T02:45:50;5.20;99.90
23156;DHT22;11746;50.876;4.246;2024-03-08T02:48:20;5.20;99.90
23156;DHT22;11746;50.876;4.246;2024-03-08T02:50:49;5.30;99.90
23156;DHT22;11746;50.876;4.246;2024-03-08T02:53:16;5.30;99.90
23156;DHT22;11746;50.876;4.246;2024-03-08T02:55:44;5.10;99.90
23156;DHT22;11746;50.876;4.246;2024-03-08T02:58:12;5.20;99.90
23156;DHT22;11746;50.876;4.246;2024-03-08T03:00:40;5.30;99.90
23156;DHT22;11746;50.876;4.246;2024-03-08T03:03:06;5.20;99.90
23156;DHT22;11746;50.876;4.246;2024-03-08T03:05:32;5.10;99.90
23156;DHT22;11746;50.876;4.246;2024-03-08T03:08:00;4.90;99.90
23156;DHT22;11746;50.876;4.246;2024-03-08T03:10:29;4.90;99.90
23156;DHT22;11746;50.876;4.246;2024-03-08T03:12:57;4.90;99.90
23156;DHT22;11746;50.876;4.246;2024-03-08T03:15:23;4.90;99.90
23156;DHT22;11746;50.876;4.246;2024-03-08T03:17:53;4.90;99.90
23156;DHT22;11746;50.876;4.246;2024-03-08T03:20:19;4.90;99.90
23156;DHT22;11746;50.876;4.246;2024-03-08T03:22:53;5.00;99.90
23156;DHT22;11746;50.876;4.246;2024-03-08T03:25:20;4.90;99.90
23156;DHT22;11746;50.876;4.246;2024-03-08T03:27:51;4.90;99.90
23156;DHT22;11746;50.876;4.246;2024-03-08T03:30:17;4.90;99.90
23156;DHT22;11746;50.876;4.246;2024-03-08T03:32:50;5.00;99.90
23156;DHT22;11746;50.876;4.246;2024-03-08T03:35:22;5.00;99.90
23156;DHT22;11746;50.876;4.246;2024-03-08T03:37:48;4.80;99.90
23156;DHT22;11746;50.876;4.246;2024-03-08T03:40:39;4.80;99.90
23156;DHT22;11746;50.876;4.246;2024-03-08T03:43:06;4.90;99.90
23156;DHT22;11746;50.876;4.246;2024-03-08T03:45:35;4.70;99.90
23156;DHT22;11746;50.876;4.246;2024-03-08T03:48:07;4.70;99.90
23156;DHT22;11746;50.876;4.246;2024-03-08T03:50:35;4.70;99.90
23156;DHT22;11746;50.876;4.246;2024-03-08T03:53:01;4.80;99.90
23156;DHT22;11746;50.876;4.246;2024-03-08T03:55:28;4.70;99.90
23156;DHT22;11746;50.876;4.246;2024-03-08T03:58:13;4.60;99.90
23156;DHT22;11746;50.876;4.246;2024-03-08T04:00:39;4.60;99.90
23156;DHT22;11746;50.876;4.246;2024-03-08T04:03:06;4.60;99.90
23156;DHT22;11746;50.876;4.246;2024-03-08T04:05:33;4.60;99.90
23156;DHT22;11746;50.876;4.246;2024-03-08T04:08:02;4.60;99.90
23156;DHT22;11746;50.876;4.246;2024-03-08T04:10:32;4.60;99.90
23156;DHT22;11746;50.876;4.246;2024-03-08T04:12:58;4.60;99.90
23156;DHT22;11746;50.876;4.246;2024-03-08T04:15:24;4.50;99.90
23156;DHT22;11746;50.876;4.246;2024-03-08T04:17:49;4.50;99.90
23156;DHT22;11746;50.876;4.246;2024-03-08T04:20:15;4.60;99.90
23156;DHT22;11746;50.876;4.246;2024-03-08T04:22:45;4.50;99.90
23156;DHT22;11746;50.876;4.246;2024-03-08T04:25:12;4.50;99.90
23156;DHT22;11746;50.876;4.246;2024-03-08T04:27:41;4.60;99.90
23156;DHT22;11746;50.876;4.246;2024-03-08T04:30:07;4.50;99.90
23156;DHT22;11746;50.876;4.246;2024-03-08T04:32:33;4.50;99.90
23156;DHT22;11746;50.876;4.246;2024-03-08T04:34:59;4.60;99.90
23156;DHT22;11746;50.876;4.246;2024-03-08T04:37:28;4.50;99.90
23156;DHT22;11746;50.876;4.246;2024-03-08T04:39:59;4.60;99.90
23156;DHT22;11746;50.876;4.246;2024-03-08T04:42:28;4.50;99.90
23156;DHT22;11746;50.876;4.246;2024-03-08T04:44:55;4.50;99.90
23156;DHT22;11746;50.876;4.246;2024-03-08T04:47:21;4.60;99.90
23156;DHT22;11746;50.876;4.246;2024-03-08T04:49:49;4.70;99.90
23156;DHT22;11746;50.876;4.246;2024-03-08T04:52:17;4.70;99.90
23156;DHT22;11746;50.876;4.246;2024-03-08T04:54:43;4.70;99.90
23156;DHT22;11746;50.876;4.246;2024-03-08T04:57:11;4.50;99.90
23156;DHT22;11746;50.876;4.246;2024-03-08T04:59:39;4.40;99.90
23156;DHT22;11746;50.876;4.246;2024-03-08T05:02:05;4.50;99.90
23156;DHT22;11746;50.876;4.246;2024-03-08T05:04:32;4.60;99.90
23156;DHT22;11746;50.876;4.246;2024-03-08T05:07:00;4.30;99.90
23156;DHT22;11746;50.876;4.246;2024-03-08T05:09:29;4.10;99.90
23156;DHT22;11746;50.876;4.246;2024-03-08T05:11:59;4.30;99.90
23156;DHT22;11746;50.876;4.246;2024-03-08T05:14:32;4.20;99.90
23156;DHT22;11746;50.876;4.246;2024-03-08T05:16:58;4.20;99.90
23156;DHT22;11746;50.876;4.246;2024-03-08T05:19:26;4.20;99.90
23156;DHT22;11746;50.876;4.246;2024-03-08T05:21:51;4.20;99.90
23156;DHT22;11746;50.876;4.246;2024-03-08T05:24:19;4.20;99.90
23156;DHT22;11746;50.876;4.246;2024-03-08T05:26:48;4.20;99.90
23156;DHT22;11746;50.876;4.246;2024-03-08T05:29:15;4.20;99.90
23156;DHT22;11746;50.876;4.246;2024-03-08T05:31:52;4.10;99.90
23156;DHT22;11746;50.876;4.246;2024-03-08T05:34:21;4.20;99.90
23156;DHT22;11746;50.876;4.246;2024-03-08T05:36:48;4.20;99.90
23156;DHT22;11746;50.876;4.246;2024-03-08T05:39:16;4.10;99.90
23156;DHT22;11746;50.876;4.246;2024-03-08T05:41:43;4.10;99.90
23156;DHT22;11746;50.876;4.246;2024-03-08T05:44:12;4.00;99.90
23156;DHT22;11746;50.876;4.246;2024-03-08T05:46:39;4.10;99.90
23156;DHT22;11746;50.876;4.246;2024-03-08T05:49:07;4.20;99.90
23156;DHT22;11746;50.876;4.246;2024-03-08T05:51:36;4.20;99.90
23156;DHT22;11746;50.876;4.246;2024-03-08T05:54:06;4.20;99.90
23156;DHT22;11746;50.876;4.246;2024-03-08T05:56:32;4.10;99.90
23156;DHT22;11746;50.876;4.246;2024-03-08T05:58:58;4.20;99.90
23156;DHT22;11746;50.876;4.246;2024-03-08T06:01:26;4.00;99.90
23156;DHT22;11746;50.876;4.246;2024-03-08T06:03:55;4.00;99.90
23156;DHT22;11746;50.876;4.246;2024-03-08T06:06:26;4.00;99.90
23156;DHT22;11746;50.876;4.246;2024-03-08T06:08:54;4.10;99.90
23156;DHT22;11746;50.876;4.246;2024-03-08T06:11:22;4.00;99.90
23156;DHT22;11746;50.876;4.246;2024-03-08T06:13:48;4.10;99.90
23156;DHT22;11746;50.876;4.246;2024-03-08T06:16:17;4.30;99.90
23156;DHT22;11746;50.876;4.246;2024-03-08T06:18:43;4.10;99.90
23156;DHT22;11746;50.876;4.246;2024-03-08T06:21:14;4.10;99.90
23156;DHT22;11746;50.876;4.246;2024-03-08T06:23:42;4.20;99.90
23156;DHT22;11746;50.876;4.246;2024-03-08T06:26:08;4.20;99.90
23156;DHT22;11746;50.876;4.246;2024-03-08T06:28:34;4.10;99.90
23156;DHT22;11746;50.876;4.246;2024-03-08T06:31:03;4.10;99.90
23156;DHT22;11746;50.876;4.246;2024-03-08T06:33:29;4.10;99.90
23156;DHT22;11746;50.876;4.246;2024-03-08T06:35:55;4.30;99.90
23156;DHT22;11746;50.876;4.246;2024-03-08T06:38:28;4.30;99.90
23156;DHT22;11746;50.876;4.246;2024-03-08T06:40:56;4.10;99.90
23156;DHT22;11746;50.876;4.246;2024-03-08T06:43:24;4.00;99.90
23156;DHT22;11746;50.876;4.246;2024-03-08T06:46:00;4.20;99.90
23156;DHT22;11746;50.876;4.246;2024-03-08T06:48:30;4.20;99.90
23156;DHT22;11746;50.876;4.246;2024-03-08T06:51:00;4.00;99.90
23156;DHT22;11746;50.876;4.246;2024-03-08T06:53:25;4.10;99.90
23156;DHT22;11746;50.876;4.246;2024-03-08T06:55:51;4.20;99.90
23156;DHT22;11746;50.876;4.246;2024-03-08T06:58:17;4.20;99.90
23156;DHT22;11746;50.876;4.246;2024-03-08T07:00:42;4.20;99.90
23156;DHT22;11746;50.876;4.246;2024-03-08T07:03:11;4.30;99.90
23156;DHT22;11746;50.876;4.246;2024-03-08T07:05:42;4.30;99.90
23156;DHT22;11746;50.876;4.246;2024-03-08T07:08:08;4.30;99.90
23156;DHT22;11746;50.876;4.246;2024-03-08T07:10:33;4.30;99.90
23156;DHT22;11746;50.876;4.246;2024-03-08T07:13:00;4.20;99.90
23156;DHT22;11746;50.876;4.246;2024-03-08T07:15:27;4.20;99.90
23156;DHT22;11746;50.876;4.246;2024-03-08T07:17:54;4.30;99.90
23156;DHT22;11746;50.876;4.246;2024-03-08T07:20:22;4.30;99.90
23156;DHT22;11746;50.876;4.246;2024-03-08T07:22:48;4.30;99.90
23156;DHT22;11746;50.876;4.246;2024-03-08T07:25:18;4.40;99.90
23156;DHT22;11746;50.876;4.246;2024-03-08T07:27:48;4.50;99.90
23156;DHT22;11746;50.876;4.246;2024-03-08T07:30:16;4.50;99.90
23156;DHT22;11746;50.876;4.246;2024-03-08T07:33:23;4.60;99.90
23156;DHT22;11746;50.876;4.246;2024-03-08T07:35:48;4.70;99.90
23156;DHT22;11746;50.876;4.246;2024-03-08T07:38:15;4.70;99.90
23156;DHT22;11746;50.876;4.246;2024-03-08T07:40:42;4.70;99.90
23156;DHT22;11746;50.876;4.246;2024-03-08T07:43:13;4.80;99.90
23156;DHT22;11746;50.876;4.246;2024-03-08T07:45:39;4.80;99.90
23156;DHT22;11746;50.876;4.246;2024-03-08T07:48:08;4.90;99.90
23156;DHT22;11746;50.876;4.246;2024-03-08T07:50:38;4.90;99.90
23156;DHT22;11746;50.876;4.246;2024-03-08T07:53:09;5.00;99.90
23156;DHT22;11746;50.876;4.246;2024-03-08T07:55:37;5.10;99.90
23156;DHT22;11746;50.876;4.246;2024-03-08T07:58:07;5.00;99.90
23156;DHT22;11746;50.876;4.246;2024-03-08T08:00:34;5.10;99.90
23156;DHT22;11746;50.876;4.246;2024-03-08T08:03:01;5.40;99.90
23156;DHT22;11746;50.876;4.246;2024-03-08T08:05:30;5.30;99.90
23156;DHT22;11746;50.876;4.246;2024-03-08T08:08:01;5.30;99.90
23156;DHT22;11746;50.876;4.246;2024-03-08T08:10:28;5.40;99.90
23156;DHT22;11746;50.876;4.246;2024-03-08T08:12:56;5.60;99.90
23156;DHT22;11746;50.876;4.246;2024-03-08T08:15:22;5.50;99.90
23156;DHT22;11746;50.876;4.246;2024-03-08T08:17:48;5.60;99.90
23156;DHT22;11746;50.876;4.246;2024-03-08T08:20:16;5.70;99.90
23156;DHT22;11746;50.876;4.246;2024-03-08T08:22:43;5.90;99.90
23156;DHT22;11746;50.876;4.246;2024-03-08T08:25:13;5.80;99.90
23156;DHT22;11746;50.876;4.246;2024-03-08T08:27:41;6.00;99.90
23156;DHT22;11746;50.876;4.246;2024-03-08T08:30:08;6.10;99.90
23156;DHT22;11746;50.876;4.246;2024-03-08T08:32:38;6.30;99.90
23156;DHT22;11746;50.876;4.246;2024-03-08T08:35:08;6.20;99.90
23156;DHT22;11746;50.876;4.246;2024-03-08T08:37:41;6.20;99.90
23156;DHT22;11746;50.876;4.246;2024-03-08T08:40:07;6.20;99.90
23156;DHT22;11746;50.876;4.246;2024-03-08T08:42:42;6.20;99.90
23156;DHT22;11746;50.876;4.246;2024-03-08T08:45:08;6.30;99.90
23156;DHT22;11746;50.876;4.246;2024-03-08T08:47:35;6.40;99.90
23156;DHT22;11746;50.876;4.246;2024-03-08T08:50:04;6.50;99.90
23156;DHT22;11746;50.876;4.246;2024-03-08T08:52:31;6.70;99.90
23156;DHT22;11746;50.876;4.246;2024-03-08T08:54:59;6.80;99.90
23156;DHT22;11746;50.876;4.246;2024-03-08T08:57:28;6.90;99.90
23156;DHT22;11746;50.876;4.246;2024-03-08T08:59:53;7.00;99.90
23156;DHT22;11746;50.876;4.246;2024-03-08T09:02:20;7.10;99.90
23156;DHT22;11746;50.876;4.246;2024-03-08T09:04:46;7.10;99.90
23156;DHT22;11746;50.876;4.246;2024-03-08T09:07:16;7.30;99.90
23156;DHT22;11746;50.876;4.246;2024-03-08T09:09:44;7.50;99.90
23156;DHT22;11746;50.876;4.246;2024-03-08T09:12:12;7.50;99.90
23156;DHT22;11746;50.876;4.246;2024-03-08T09:14:41;7.50;99.90
23156;DHT22;11746;50.876;4.246;2024-03-08T09:17:08;7.60;99.90
23156;DHT22;11746;50.876;4.246;2024-03-08T09:19:37;7.80;99.90
23156;DHT22;11746;50.876;4.246;2024-03-08T09:22:05;7.80;99.90
23156;DHT22;11746;50.876;4.246;2024-03-08T09:24:30;7.70;99.90
23156;DHT22;11746;50.876;4.246;2024-03-08T09:26:57;7.70;99.90
23156;DHT22;11746;50.876;4.246;2024-03-08T09:29:26;7.80;99.90
23156;DHT22;11746;50.876;4.246;2024-03-08T09:31:52;7.80;99.90
23156;DHT22;11746;50.876;4.246;2024-03-08T09:34:20;7.90;99.90
23156;DHT22;11746;50.876;4.246;2024-03-08T09:36:49;7.80;99.90
23156;DHT22;11746;50.876;4.246;2024-03-08T09:39:14;7.90;99.90
23156;DHT22;11746;50.876;4.246;2024-03-08T09:41:45;8.10;99.90
23156;DHT22;11746;50.876;4.246;2024-03-08T09:44:18;8.20;99.90
23156;DHT22;11746;50.876;4.246;2024-03-08T09:46:47;8.30;99.90
23156;DHT22;11746;50.876;4.246;2024-03-08T09:49:21;8.20;99.90
23156;DHT22;11746;50.876;4.246;2024-03-08T09:51:47;8.30;99.90
23156;DHT22;11746;50.876;4.246;2024-03-08T09:54:15;8.40;99.90
23156;DHT22;11746;50.876;4.246;2024-03-08T09:56:47;8.30;99.90
23156;DHT22;11746;50.876;4.246;2024-03-08T09:59:15;8.30;99.90
23156;DHT22;11746;50.876;4.246;2024-03-08T10:02:12;8.50;99.90
23156;DHT22;11746;50.876;4.246;2024-03-08T10:04:40;8.80;99.90
23156;DHT22;11746;50.876;4.246;2024-03-08T10:07:10;8.70;99.90
23156;DHT22;11746;50.876;4.246;2024-03-08T10:09:38;8.90;99.90
23156;DHT22;11746;50.876;4.246;2024-03-08T10:12:09;9.00;99.90
23156;DHT22;11746;50.876;4.246;2024-03-08T10:14:39;9.20;99.90
23156;DHT22;11746;50.876;4.246;2024-03-08T10:17:09;9.40;99.90
23156;DHT22;11746;50.876;4.246;2024-03-08T10:19:37;9.50;99.90
23156;DHT22;11746;50.876;4.246;2024-03-08T10:22:07;9.50;99.90
23156;DHT22;11746;50.876;4.246;2024-03-08T10:24:42;9.40;99.90
23156;DHT22;11746;50.876;4.246;2024-03-08T10:27:11;9.50;99.90
23156;DHT22;11746;50.876;4.246;2024-03-08T10:29:36;9.40;99.90
23156;DHT22;11746;50.876;4.246;2024-03-08T10:32:04;9.30;99.90
23156;DHT22;11746;50.876;4.246;2024-03-08T10:34:32;9.20;99.90
23156;DHT22;11746;50.876;4.246;2024-03-08T10:37:05;9.30;99.90
23156;DHT22;11746;50.876;4.246;2024-03-08T10:39:36;9.40;99.90
23156;DHT22;11746;50.876;4.246;2024-03-08T10:42:05;9.60;99.90
23156;DHT22;11746;50.876;4.246;2024-03-08T10:45:01;9.90;99.90
23156;DHT22;11746;50.876;4.246;2024-03-08T10:47:33;10.00;99.90
23156;DHT22;11746;50.876;4.246;2024-03-08T10:50:20;10.00;99.90
23156;DHT22;11746;50.876;4.246;2024-03-08T10:52:52;10.20;99.90
23156;DHT22;11746;50.876;4.246;2024-03-08T10:55:18;10.30;99.90
23156;DHT22;11746;50.876;4.246;2024-03-08T10:57:50;10.40;99.90
23156;DHT22;11746;50.876;4.246;2024-03-08T11:00:16;10.40;99.90
23156;DHT22;11746;50.876;4.246;2024-03-08T11:02:54;10.20;99.90
23156;DHT22;11746;50.876;4.246;2024-03-08T11:05:39;10.30;99.90
23156;DHT22;11746;50.876;4.246;2024-03-08T11:08:20;10.50;99.90
23156;DHT22;11746;50.876;4.246;2024-03-08T11:10:49;10.60;99.90
23156;DHT22;11746;50.876;4.246;2024-03-08T11:13:40;10.60;99.90
23156;DHT22;11746;50.876;4.246;2024-03-08T11:16:10;10.50;99.90
23156;DHT22;11746;50.876;4.246;2024-03-08T11:18:37;10.60;99.90
23156;DHT22;11746;50.876;4.246;2024-03-08T11:21:11;10.80;99.90
23156;DHT22;11746;50.876;4.246;2024-03-08T11:23:39;10.80;99.90
23156;DHT22;11746;50.876;4.246;2024-03-08T11:26:20;10.90;99.90
23156;DHT22;11746;50.876;4.246;2024-03-08T11:28:46;11.00;99.90
23156;DHT22;11746;50.876;4.246;2024-03-08T11:33:40;11.20;99.90
23156;DHT22;11746;50.876;4.246;2024-03-08T11:38:49;11.40;99.90
23156;DHT22;11746;50.876;4.246;2024-03-08T11:41:23;11.50;99.90
23156;DHT22;11746;50.876;4.246;2024-03-08T11:44:05;11.40;99.90
23156;DHT22;11746;50.876;4.246;2024-03-08T11:46:30;11.50;99.90
23156;DHT22;11746;50.876;4.246;2024-03-08T11:48:56;11.80;99.90
23156;DHT22;11746;50.876;4.246;2024-03-08T11:51:22;11.90;99.90
23156;DHT22;11746;50.876;4.246;2024-03-08T11:53:51;11.80;99.90
23156;DHT22;11746;50.876;4.246;2024-03-08T11:56:18;11.90;99.90
23156;DHT22;11746;50.876;4.246;2024-03-08T11:58:56;11.70;99.90
23156;DHT22;11746;50.876;4.246;2024-03-08T12:01:23;11.80;99.90
23156;DHT22;11746;50.876;4.246;2024-03-08T12:03:56;12.00;99.90
23156;DHT22;11746;50.876;4.246;2024-03-08T12:06:26;12.40;99.90
23156;DHT22;11746;50.876;4.246;2024-03-08T12:08:52;12.60;99.90
23156;DHT22;11746;50.876;4.246;2024-03-08T12:11:20;12.50;99.90
23156;DHT22;11746;50.876;4.246;2024-03-08T12:13:49;12.40;99.90
23156;DHT22;11746;50.876;4.246;2024-03-08T12:16:19;12.30;99.90
23156;DHT22;11746;50.876;4.246;2024-03-08T12:18:47;12.30;99.90
23156;DHT22;11746;50.876;4.246;2024-03-08T12:21:17;12.30;99.90
23156;DHT22;11746;50.876;4.246;2024-03-08T12:23:47;12.30;99.90
23156;DHT22;11746;50.876;4.246;2024-03-08T12:26:26;12.60;99.90
23156;DHT22;11746;50.876;4.246;2024-03-08T12:28:56;12.70;99.90
23156;DHT22;11746;50.876;4.246;2024-03-08T12:31:39;13.00;99.90
23156;DHT22;11746;50.876;4.246;2024-03-08T12:34:08;12.90;99.90
23156;DHT22;11746;50.876;4.246;2024-03-08T12:36:40;12.90;99.90
23156;DHT22;11746;50.876;4.246;2024-03-08T12:39:10;13.10;99.90
23156;DHT22;11746;50.876;4.246;2024-03-08T12:41:40;13.30;99.90
23156;DHT22;11746;50.876;4.246;2024-03-08T12:44:09;13.10;99.90
23156;DHT22;11746;50.876;4.246;2024-03-08T12:46:38;13.40;99.90
23156;DHT22;11746;50.876;4.246;2024-03-08T12:49:11;13.40;99.90
23156;DHT22;11746;50.876;4.246;2024-03-08T12:51:40;13.50;99.90
23156;DHT22;11746;50.876;4.246;2024-03-08T12:54:07;13.80;99.90
23156;DHT22;11746;50.876;4.246;2024-03-08T12:56:36;13.80;99.90
23156;DHT22;11746;50.876;4.246;2024-03-08T12:59:08;13.80;99.90
23156;DHT22;11746;50.876;4.246;2024-03-08T13:01:34;13.70;99.90
23156;DHT22;11746;50.876;4.246;2024-03-08T13:04:03;13.60;99.90
23156;DHT22;11746;50.876;4.246;2024-03-08T13:06:29;13.70;99.90
23156;DHT22;11746;50.876;4.246;2024-03-08T13:08:57;13.70;99.90
23156;DHT22;11746;50.876;4.246;2024-03-08T13:11:24;14.30;99.90
23156;DHT22;11746;50.876;4.246;2024-03-08T13:13:51;14.60;99.90
23156;DHT22;11746;50.876;4.246;2024-03-08T13:16:20;14.90;99.80
23156;DHT22;11746;50.876;4.246;2024-03-08T13:18:46;15.00;99.90
23156;DHT22;11746;50.876;4.246;2024-03-08T13:21:15;15.00;99.20
23156;DHT22;11746;50.876;4.246;2024-03-08T13:23:44;14.80;99.60
23156;DHT22;11746;50.876;4.246;2024-03-08T13:26:17;14.70;99.90
23156;DHT22;11746;50.876;4.246;2024-03-08T13:28:48;15.00;99.50
23156;DHT22;11746;50.876;4.246;2024-03-08T13:31:20;15.30;99.00
23156;DHT22;11746;50.876;4.246;2024-03-08T13:33:45;15.40;99.70
23156;DHT22;11746;50.876;4.246;2024-03-08T13:36:12;16.00;98.40
23156;DHT22;11746;50.876;4.246;2024-03-08T13:38:49;16.30;96.70
23156;DHT22;11746;50.876;4.246;2024-03-08T13:41:15;16.80;95.40
23156;DHT22;11746;50.876;4.246;2024-03-08T13:43:46;17.10;93.90
23156;DHT22;11746;50.876;4.246;2024-03-08T13:46:12;17.40;92.80
23156;DHT22;11746;50.876;4.246;2024-03-08T13:48:39;17.10;92.20
23156;DHT22;11746;50.876;4.246;2024-03-08T13:51:07;17.20;92.00
23156;DHT22;11746;50.876;4.246;2024-03-08T13:53:33;17.30;90.90
23156;DHT22;11746;50.876;4.246;2024-03-08T13:56:05;17.00;91.70
23156;DHT22;11746;50.876;4.246;2024-03-08T13:58:31;16.70;93.00
23156;DHT22;11746;50.876;4.246;2024-03-08T14:00:57;17.20;93.80
23156;DHT22;11746;50.876;4.246;2024-03-08T14:03:22;18.10;91.70
23156;DHT22;11746;50.876;4.246;2024-03-08T14:05:49;18.30;88.60
23156;DHT22;11746;50.876;4.246;2024-03-08T14:08:15;18.30;88.70
23156;DHT22;11746;50.876;4.246;2024-03-08T14:10:46;18.80;86.60
23156;DHT22;11746;50.876;4.246;2024-03-08T14:13:16;18.60;83.30
23156;DHT22;11746;50.876;4.246;2024-03-08T14:15:48;18.30;86.30
23156;DHT22;11746;50.876;4.246;2024-03-08T14:18:14;18.10;85.60
23156;DHT22;11746;50.876;4.246;2024-03-08T14:20:44;17.90;85.80
23156;DHT22;11746;50.876;4.246;2024-03-08T14:23:10;18.10;85.40
23156;DHT22;11746;50.876;4.246;2024-03-08T14:25:38;18.90;84.10
23156;DHT22;11746;50.876;4.246;2024-03-08T14:28:04;19.80;80.90
23156;DHT22;11746;50.876;4.246;2024-03-08T14:30:35;19.70;79.60
23156;DHT22;11746;50.876;4.246;2024-03-08T14:33:03;20.10;79.00
23156;DHT22;11746;50.876;4.246;2024-03-08T14:35:31;20.70;77.10
23156;DHT22;11746;50.876;4.246;2024-03-08T14:37:57;21.00;75.00
23156;DHT22;11746;50.876;4.246;2024-03-08T14:40:24;20.40;72.70
23156;DHT22;11746;50.876;4.246;2024-03-08T14:42:51;20.00;75.90
23156;DHT22;11746;50.876;4.246;2024-03-08T14:45:17;20.50;73.30
23156;DHT22;11746;50.876;4.246;2024-03-08T14:47:49;20.70;72.80
23156;DHT22;11746;50.876;4.246;2024-03-08T14:50:19;21.00;71.80
23156;DHT22;11746;50.876;4.246;2024-03-08T14:52:45;21.10;72.10
23156;DHT22;11746;50.876;4.246;2024-03-08T14:55:15;22.00;69.80
23156;DHT22;11746;50.876;4.246;2024-03-08T14:57:44;22.40;68.40
23156;DHT22;11746;50.876;4.246;2024-03-08T15:00:15;22.20;67.00
23156;DHT22;11746;50.876;4.246;2024-03-08T15:03:04;22.30;66.60
23156;DHT22;11746;50.876;4.246;2024-03-08T15:05:40;22.50;66.20
23156;DHT22;11746;50.876;4.246;2024-03-08T15:08:12;22.70;66.00
23156;DHT22;11746;50.876;4.246;2024-03-08T15:10:47;22.30;65.70
23156;DHT22;11746;50.876;4.246;2024-03-08T15:13:24;23.20;64.30
23156;DHT22;11746;50.876;4.246;2024-03-08T15:15:53;23.20;63.30
23156;DHT22;11746;50.876;4.246;2024-03-08T15:18:23;22.40;62.50
23156;DHT22;11746;50.876;4.246;2024-03-08T15:21:03;21.70;63.20
23156;DHT22;11746;50.876;4.246;2024-03-08T15:23:33;21.50;63.70
23156;DHT22;11746;50.876;4.246;2024-03-08T15:26:02;21.20;65.00
23156;DHT22;11746;50.876;4.246;2024-03-08T15:28:31;21.90;63.90
23156;DHT22;11746;50.876;4.246;2024-03-08T15:31:06;21.80;63.50
23156;DHT22;11746;50.876;4.246;2024-03-08T15:33:33;21.70;64.00
23156;DHT22;11746;50.876;4.246;2024-03-08T15:35:59;22.00;63.40
23156;DHT22;11746;50.876;4.246;2024-03-08T15:38:29;22.20;62.00
23156;DHT22;11746;50.876;4.246;2024-03-08T15:40:55;21.60;62.60
23156;DHT22;11746;50.876;4.246;2024-03-08T15:43:23;22.10;62.70
23156;DHT22;11746;50.876;4.246;2024-03-08T15:45:53;22.70;62.70
23156;DHT22;11746;50.876;4.246;2024-03-08T15:48:23;23.10;61.40
23156;DHT22;11746;50.876;4.246;2024-03-08T15:50:49;22.50;61.00
23156;DHT22;11746;50.876;4.246;2024-03-08T15:53:16;21.70;62.10
23156;DHT22;11746;50.876;4.246;2024-03-08T15:55:44;22.20;61.70